Time;durP1;ratioP1;P1;durP2;ratioP2;P2;SDS_P1;SDS_P2;PMS_P1;PMS_P2;Temp;Humidity;BMP_temperature;BMP_pressure;BME280_temperature;BME280_humidity;BME280_pressure;Samples;Min_cycle;Max_cycle;Signal;HPM_P1;HPM_P2
2023/09/21 00:06:31;;;;;;;6.18;3.80;;;11.00;99.90;;;;;;25596250;23;20009;-62
2023/09/21 00:16:32;;;;;;;7.13;4.45;;;11.00;99.90;;;;;;25596210;23;20001;-62
2023/09/21 00:26:34;;;;;;;15.23;6.13;;;10.90;99.90;;;;;;25569719;23;20005;-61
2023/09/21 00:36:36;;;;;;;15.25;7.65;;;10.80;99.90;;;;;;25595245;23;20013;-61
2023/09/21 00:46:38;;;;;;;13.63;6.78;;;10.80;99.90;;;;;;25568668;23;20005;-52
2023/09/21 00:56:41;;;;;;;17.15;10.43;;;10.80;99.90;;;;;;25594671;23;20009;-61
2023/09/21 01:06:45;;;;;;;29.23;15.10;;;10.70;99.90;;;;;;25568336;23;20008;-53
2023/09/21 01:16:47;;;;;;;11.95;7.50;;;10.70;99.90;;;;;;25593464;23;20005;-62
2023/09/21 01:26:49;;;;;;;14.48;6.15;;;10.80;99.90;;;;;;25593366;23;20039;-61
2023/09/21 01:36:54;;;;;;;16.13;7.90;;;10.70;99.90;;;;;;25492774;23;20014;-49
2023/09/21 01:46:56;;;;;;;12.55;7.13;;;10.60;99.90;;;;;;25469617;23;20005;-51
2023/09/21 01:56:59;;;;;;;15.80;8.13;;;10.40;99.90;;;;;;25468908;23;20005;-53
2023/09/21 02:07:01;;;;;;;16.55;7.45;;;10.50;99.90;;;;;;25442320;23;20068;-61
2023/09/21 02:17:03;;;;;;;15.43;7.25;;;10.70;99.90;;;;;;25468098;23;20013;-61
2023/09/21 02:27:08;;;;;;;12.48;4.47;;;10.90;99.90;;;;;;25466583;23;20009;-53
2023/09/21 02:37:09;;;;;;;6.25;3.42;;;10.90;99.90;;;;;;25631356;23;20005;-52
2023/09/21 02:47:11;;;;;;;5.75;2.83;;;10.80;99.90;;;;;;25590229;23;20309;-53
2023/09/21 02:57:14;;;;;;;5.65;2.55;;;10.80;99.90;;;;;;25589085;23;20009;-52
2023/09/21 03:07:17;;;;;;;5.85;2.80;;;10.80;99.90;;;;;;25562377;23;20067;-53
2023/09/21 03:17:19;;;;;;;7.93;2.95;;;10.70;99.90;;;;;;25588908;23;20305;-55
2023/09/21 03:27:23;;;;;;;10.40;3.10;;;10.60;99.90;;;;;;25587738;23;20005;-62
2023/09/21 03:37:26;;;;;;;11.80;3.30;;;10.70;99.90;;;;;;25628544;23;20013;-55
2023/09/21 03:47:29;;;;;;;10.30;3.42;;;10.80;99.90;;;;;;25560878;23;20063;-55
2023/09/21 03:57:34;;;;;;;10.25;3.80;;;11.00;99.90;;;;;;25586650;23;20347;-55
2023/09/21 04:07:35;;;;;;;10.13;4.72;;;11.00;99.90;;;;;;25585010;23;20055;-55
2023/09/21 04:17:39;;;;;;;16.25;5.22;;;11.20;99.90;;;;;;25560546;23;20008;-61
2023/09/21 04:27:43;;;;;;;13.60;4.68;;;11.20;99.90;;;;;;25585289;23;20012;-52
2023/09/21 04:37:46;;;;;;;12.90;3.60;;;11.20;99.90;;;;;;25559939;23;20075;-62
2023/09/21 04:47:52;;;;;;;11.80;4.03;;;11.30;99.90;;;;;;25593243;23;20506;-51
2023/09/21 04:57:55;;;;;;;13.15;4.63;;;11.50;99.90;;;;;;25634954;23;20075;-62
2023/09/21 05:07:58;;;;;;;16.00;4.97;;;11.60;99.90;;;;;;25591844;23;20362;-54
2023/09/21 05:18:00;;;;;;;10.45;4.72;;;11.70;99.90;;;;;;25592974;23;20048;-54
2023/09/21 05:28:02;;;;;;;14.45;5.03;;;11.80;99.90;;;;;;25592390;23;20009;-55
2023/09/21 05:38:05;;;;;;;8.25;3.67;;;12.10;99.90;;;;;;25592048;23;20013;-55
2023/09/21 05:48:14;;;;;;;9.55;3.45;;;12.30;99.90;;;;;;25591695;23;20708;-62
2023/09/21 05:58:17;;;;;;;11.43;3.83;;;12.60;99.90;;;;;;25631786;23;20440;-61
2023/09/21 06:08:21;;;;;;;8.98;3.30;;;12.90;99.90;;;;;;25590819;23;20394;-56
2023/09/21 06:18:23;;;;;;;7.90;2.97;;;13.20;99.90;;;;;;25590342;23;20012;-62
2023/09/21 06:28:25;;;;;;;7.75;2.42;;;13.30;99.90;;;;;;25589498;23;20015;-63
2023/09/21 06:38:27;;;;;;;9.05;2.40;;;13.60;99.90;;;;;;25589883;23;20009;-63
2023/09/21 06:48:28;;;;;;;5.95;1.90;;;14.00;99.90;;;;;;25589853;23;20005;-63
2023/09/21 06:58:30;;;;;;;4.57;1.73;;;14.10;99.90;;;;;;25587090;23;20012;-63
2023/09/21 07:08:32;;;;;;;4.25;1.30;;;14.30;99.90;;;;;;25589079;23;20325;-59
2023/09/21 07:18:36;;;;;;;6.05;1.70;;;14.40;99.90;;;;;;25588575;23;20008;-63
2023/09/21 07:28:38;;;;;;;5.50;1.50;;;14.10;99.90;;;;;;25588243;23;20071;-63
2023/09/21 07:38:39;;;;;;;4.88;1.58;;;14.00;99.90;;;;;;25587967;23;20006;-64
2023/09/21 07:48:41;;;;;;;6.50;1.90;;;14.10;99.90;;;;;;25586131;23;20005;-64
2023/09/21 07:58:43;;;;;;;8.98;1.73;;;14.00;99.90;;;;;;25587837;23;20001;-64
2023/09/21 08:08:46;;;;;;;6.70;1.70;;;14.10;99.90;;;;;;25587515;23;20507;-63
2023/09/21 08:18:48;;;;;;;7.53;2.10;;;14.10;99.90;;;;;;25591488;23;20005;-64
2023/09/21 08:28:51;;;;;;;4.57;1.80;;;14.40;99.90;;;;;;25595381;23;20009;-64
2023/09/21 08:38:53;;;;;;;11.23;1.92;;;14.40;99.90;;;;;;25594623;23;20449;-64
2023/09/21 08:48:59;;;;;;;7.25;2.30;;;14.30;99.90;;;;;;25594350;23;20027;-64
2023/09/21 08:59:06;;;;;;;7.55;2.40;;;14.20;99.90;;;;;;25608173;23;20005;-63
2023/09/21 09:09:08;;;;;;;5.95;2.78;;;14.00;99.90;;;;;;25634666;23;20040;-57
2023/09/21 09:19:12;;;;;;;6.95;2.97;;;13.90;99.90;;;;;;25593326;23;20376;-63
2023/09/21 09:29:14;;;;;;;9.88;3.47;;;14.00;99.90;;;;;;25591666;23;20016;-63
2023/09/21 09:39:15;;;;;;;7.40;3.28;;;14.10;99.90;;;;;;25591858;23;20013;-63
2023/09/21 09:49:20;;;;;;;9.90;3.42;;;14.50;99.90;;;;;;25591762;23;20021;-63
2023/09/21 09:59:23;;;;;;;7.63;2.60;;;14.80;99.90;;;;;;25591087;23;20005;-63
2023/09/21 10:09:27;;;;;;;8.38;2.60;;;15.60;99.90;;;;;;25591119;23;20332;-62
2023/09/21 10:19:29;;;;;;;9.13;2.40;;;16.90;99.90;;;;;;25590385;23;20012;-58
2023/09/21 10:29:33;;;;;;;8.77;2.20;;;18.00;99.90;;;;;;25589919;23;20013;-63
2023/09/21 10:39:39;;;;;;;7.88;2.35;;;17.80;99.90;;;;;;25590390;23;20009;-63
2023/09/21 10:49:42;;;;;;;7.47;2.15;;;17.90;99.90;;;;;;25630099;23;20424;-62
2023/09/21 10:59:44;;;;;;;8.48;2.40;;;18.50;99.90;;;;;;25589663;23;20020;-63
2023/09/21 11:09:46;;;;;;;8.15;2.08;;;19.90;99.90;;;;;;25589931;23;20001;-62
2023/09/21 11:19:50;;;;;;;9.63;2.03;;;21.10;99.90;;;;;;25589057;23;20333;-64
2023/09/21 11:29:53;;;;;;;5.70;2.30;;;20.10;99.90;;;;;;25589322;23;20441;-65
2023/09/21 11:39:55;;;;;;;6.93;2.42;;;19.10;99.90;;;;;;25588151;23;20056;-58
2023/09/21 11:50:03;;;;;;;7.82;2.50;;;17.80;99.90;;;;;;25588288;23;20009;-64
2023/09/21 12:00:26;;;;;;;7.25;2.72;;;17.30;99.90;;;;;;25630857;23;20013;-63
2023/09/21 12:10:27;;;;;;;7.13;2.80;;;16.70;99.90;;;;;;25588170;23;20005;-63
2023/09/21 12:20:29;;;;;;;10.82;5.35;;;16.50;99.90;;;;;;25588092;23;20005;-57
2023/09/21 12:30:31;;;;;;;11.68;5.80;;;16.00;99.90;;;;;;25588102;23;20024;-57
2023/09/21 12:40:33;;;;;;;10.15;5.55;;;15.40;99.90;;;;;;25587434;23;20392;-62
2023/09/21 12:50:34;;;;;;;13.77;5.55;;;15.70;99.90;;;;;;25587652;23;20009;-59
2023/09/21 13:00:37;;;;;;;13.93;5.25;;;16.90;99.90;;;;;;25588087;23;20301;-59
2023/09/21 13:10:46;;;;;;;10.57;4.65;;;16.70;99.90;;;;;;25594637;23;20004;-59
2023/09/21 13:20:47;;;;;;;13.25;5.85;;;17.20;99.90;;;;;;25608991;23;20009;-58
2023/09/21 13:30:49;;;;;;;9.18;4.00;;;16.70;99.90;;;;;;25593303;23;20404;-58
2023/09/21 13:40:51;;;;;;;9.18;4.00;;;16.60;99.90;;;;;;25592981;23;20052;-58
2023/09/21 13:50:53;;;;;;;10.15;3.67;;;16.90;99.90;;;;;;25593284;23;20001;-63
2023/09/21 14:00:55;;;;;;;6.85;2.65;;;17.30;99.90;;;;;;25592468;23;20013;-63
2023/09/21 14:10:57;;;;;;;9.30;2.88;;;18.20;99.90;;;;;;25592531;23;20005;-63
2023/09/21 14:20:59;;;;;;;9.27;2.60;;;17.70;99.90;;;;;;25591014;23;20012;-63
2023/09/21 14:31:01;;;;;;;6.43;2.50;;;17.40;99.90;;;;;;25590701;23;20510;-64
2023/09/21 14:41:03;;;;;;;4.88;2.97;;;18.10;99.90;;;;;;25591037;23;20384;-63
2023/09/21 14:51:05;;;;;;;10.57;2.92;;;17.60;99.90;;;;;;25590468;23;20024;-63
2023/09/21 15:01:08;;;;;;;8.40;3.58;;;17.60;99.90;;;;;;25564887;23;20063;-59
2023/09/21 15:11:09;;;;;;;5.15;3.40;;;17.50;99.90;;;;;;25590145;23;20005;-62
2023/09/21 15:21:13;;;;;;;8.00;4.25;;;17.20;99.90;;;;;;25589233;23;20373;-58
2023/09/21 15:31:15;;;;;;;7.60;4.25;;;16.50;99.90;;;;;;25588758;23;20009;-62
2023/09/21 15:41:18;;;;;;;9.90;3.67;;;15.80;99.90;;;;;;25588681;23;20028;-56
2023/09/21 15:51:21;;;;;;;6.97;4.22;;;15.60;99.90;;;;;;25588553;23;20437;-57
2023/09/21 16:01:22;;;;;;;8.70;5.32;;;15.50;99.90;;;;;;25588719;23;20013;-58
2023/09/21 16:11:24;;;;;;;10.50;5.13;;;15.40;99.90;;;;;;25588419;23;20324;-56
2023/09/21 16:21:27;;;;;;;10.90;5.28;;;15.30;99.90;;;;;;25587508;23;20009;-62
2023/09/21 16:31:29;;;;;;;8.65;4.63;;;15.10;99.90;;;;;;25562385;23;20417;-62
2023/09/21 16:41:31;;;;;;;12.45;5.43;;;14.70;99.90;;;;;;25593664;23;20514;-61
2023/09/21 16:51:33;;;;;;;16.92;8.85;;;14.20;99.90;;;;;;25596138;23;20325;-62
2023/09/21 17:01:35;;;;;;;14.38;8.88;;;13.80;99.90;;;;;;25595944;23;20005;-53
2023/09/21 17:11:37;;;;;;;10.43;7.40;;;13.40;99.90;;;;;;25595375;23;20008;-61
2023/09/21 17:21:39;;;;;;;8.40;6.13;;;13.10;99.90;;;;;;25595266;23;20004;-62
2023/09/21 17:31:41;;;;;;;8.50;5.60;;;13.00;99.90;;;;;;25594460;23;20340;-63
2023/09/21 17:41:43;;;;;;;5.97;3.97;;;13.10;99.90;;;;;;25594158;23;20013;-63
2023/09/21 17:51:45;;;;;;;6.25;4.10;;;13.10;99.90;;;;;;25593313;23;20021;-63
2023/09/21 18:01:47;;;;;;;9.60;3.95;;;13.20;99.90;;;;;;25591858;23;20398;-63
2023/09/21 18:11:49;;;;;;;5.72;3.33;;;13.20;99.90;;;;;;25592958;23;20059;-62
2023/09/21 18:21:51;;;;;;;5.90;3.45;;;13.20;99.90;;;;;;25593898;23;20079;-63
2023/09/21 18:31:53;;;;;;;8.27;3.40;;;13.10;99.90;;;;;;25592399;23;20004;-63
2023/09/21 18:41:56;;;;;;;10.45;3.17;;;13.10;99.90;;;;;;25591938;23;20009;-63
2023/09/21 18:51:59;;;;;;;7.18;2.47;;;13.10;99.90;;;;;;25591393;23;20067;-62
2023/09/21 19:02:01;;;;;;;4.68;2.70;;;13.10;99.90;;;;;;25588870;23;20404;-64
2023/09/21 19:12:06;;;;;;;5.55;2.22;;;13.20;99.90;;;;;;25590622;23;20301;-63
2023/09/21 19:22:09;;;;;;;6.70;2.60;;;13.20;99.90;;;;;;25590184;23;20416;-63
2023/09/21 19:32:14;;;;;;;7.78;2.20;;;13.20;99.90;;;;;;25589684;23;20310;-63
2023/09/21 19:42:16;;;;;;;4.55;2.25;;;13.30;99.90;;;;;;25589713;23;20020;-53
2023/09/21 19:52:18;;;;;;;6.03;2.35;;;13.30;99.90;;;;;;25589332;23;20013;-54
2023/09/21 20:02:19;;;;;;;4.90;2.30;;;13.30;99.90;;;;;;25589045;23;20366;-62
2023/09/21 20:12:22;;;;;;;8.27;2.75;;;13.30;99.90;;;;;;25587600;23;20357;-63
2023/09/21 20:22:24;;;;;;;4.38;2.20;;;13.30;99.90;;;;;;25597143;23;20324;-63
2023/09/21 20:32:25;;;;;;;5.78;2.58;;;13.20;99.90;;;;;;25593518;23;20009;-62
2023/09/21 20:42:27;;;;;;;3.78;2.30;;;13.20;99.90;;;;;;25593360;23;20005;-62
2023/09/21 20:52:29;;;;;;;6.50;2.80;;;13.20;99.90;;;;;;25592743;23;20004;-62
2023/09/21 21:02:31;;;;;;;5.90;1.98;;;13.20;99.90;;;;;;25592292;23;20373;-62
2023/09/21 21:12:34;;;;;;;3.40;2.08;;;13.30;99.90;;;;;;25592270;23;20328;-63
2023/09/21 21:22:36;;;;;;;6.53;1.83;;;13.30;99.90;;;;;;25591704;23;20312;-62
2023/09/21 21:32:37;;;;;;;5.95;2.70;;;13.30;99.90;;;;;;25591027;23;20063;-62
2023/09/21 21:42:40;;;;;;;5.50;2.58;;;13.30;99.90;;;;;;25591077;23;20369;-62
2023/09/21 21:52:42;;;;;;;4.00;2.80;;;13.30;99.90;;;;;;25590539;23;20314;-52
2023/09/21 22:02:45;;;;;;;4.97;2.70;;;13.30;99.90;;;;;;25590660;23;20008;-62
2023/09/21 22:12:48;;;;;;;5.70;2.95;;;13.30;99.90;;;;;;25589899;23;20029;-62
2023/09/21 22:22:51;;;;;;;5.82;3.42;;;13.30;99.90;;;;;;25589467;23;20318;-62
2023/09/21 22:32:52;;;;;;;6.32;4.10;;;13.30;99.90;;;;;;25588881;23;20013;-59
2023/09/21 22:42:54;;;;;;;6.18;3.38;;;13.30;99.90;;;;;;25588358;23;20005;-61
2023/09/21 22:52:56;;;;;;;6.35;4.07;;;13.30;99.90;;;;;;25587966;23;20079;-61
2023/09/21 23:02:58;;;;;;;7.88;4.05;;;13.20;99.90;;;;;;25561374;23;20009;-61
2023/09/21 23:13:00;;;;;;;8.52;4.68;;;13.30;99.90;;;;;;25587720;23;20349;-62
2023/09/21 23:23:02;;;;;;;12.90;5.50;;;13.20;99.90;;;;;;25587016;23;20044;-63
2023/09/21 23:33:05;;;;;;;10.77;6.63;;;13.10;99.90;;;;;;25586747;23;20093;-62
2023/09/21 23:43:08;;;;;;;12.68;7.28;;;13.10;99.90;;;;;;25586398;23;20016;-62
2023/09/21 23:53:15;;;;;;;10.95;7.30;;;13.10;99.90;;;;;;25584934;23;20536;-63
